sensor_id;sensor_type;location;lat;lon;timestamp;P1;durP1;ratioP1;P2;durP2;ratioP2
15385;SDS011;7791;47.246;9.648;2022-07-11T00:01:52;3.70;;;1.40;;
15385;SDS011;7791;47.246;9.648;2022-07-11T00:04:18;2.43;;;1.20;;
15385;SDS011;7791;47.246;9.648;2022-07-11T00:06:47;1.27;;;1.00;;
15385;SDS011;7791;47.246;9.648;2022-07-11T00:09:12;4.93;;;1.40;;
15385;SDS011;7791;47.246;9.648;2022-07-11T00:11:39;0.00;;;0.00;;
15385;SDS011;7791;47.246;9.648;2022-07-11T00:14:05;3.97;;;1.90;;
15385;SDS011;7791;47.246;9.648;2022-07-11T00:16:31;0.57;;;0.30;;
15385;SDS011;7791;47.246;9.648;2022-07-11T00:18:57;1.20;;;0.37;;
15385;SDS011;7791;47.246;9.648;2022-07-11T00:21:23;0.30;;;0.30;;
15385;SDS011;7791;47.246;9.648;2022-07-11T00:23:50;3.63;;;1.43;;
15385;SDS011;7791;47.246;9.648;2022-07-11T00:26:19;6.23;;;1.43;;
15385;SDS011;7791;47.246;9.648;2022-07-11T00:28:45;2.50;;;1.40;;
15385;SDS011;7791;47.246;9.648;2022-07-11T00:31:11;2.97;;;1.67;;
15385;SDS011;7791;47.246;9.648;2022-07-11T00:33:43;1.60;;;1.30;;
15385;SDS011;7791;47.246;9.648;2022-07-11T00:36:08;4.23;;;1.60;;
15385;SDS011;7791;47.246;9.648;2022-07-11T00:38:34;4.43;;;1.50;;
15385;SDS011;7791;47.246;9.648;2022-07-11T00:41:04;5.07;;;1.70;;
15385;SDS011;7791;47.246;9.648;2022-07-11T00:43:32;2.70;;;1.50;;
15385;SDS011;7791;47.246;9.648;2022-07-11T00:46:00;3.53;;;1.50;;
15385;SDS011;7791;47.246;9.648;2022-07-11T00:48:28;2.43;;;1.57;;
15385;SDS011;7791;47.246;9.648;2022-07-11T00:50:54;2.80;;;1.43;;
15385;SDS011;7791;47.246;9.648;2022-07-11T00:53:21;3.50;;;1.23;;
15385;SDS011;7791;47.246;9.648;2022-07-11T00:55:47;6.33;;;1.83;;
15385;SDS011;7791;47.246;9.648;2022-07-11T00:58:19;1.93;;;1.40;;
15385;SDS011;7791;47.246;9.648;2022-07-11T01:00:46;3.30;;;1.70;;
15385;SDS011;7791;47.246;9.648;2022-07-11T01:03:21;2.93;;;1.63;;
15385;SDS011;7791;47.246;9.648;2022-07-11T01:05:47;3.60;;;1.57;;
15385;SDS011;7791;47.246;9.648;2022-07-11T01:08:15;2.97;;;1.70;;
15385;SDS011;7791;47.246;9.648;2022-07-11T01:10:41;2.67;;;1.60;;
15385;SDS011;7791;47.246;9.648;2022-07-11T01:13:07;3.30;;;1.50;;
15385;SDS011;7791;47.246;9.648;2022-07-11T01:15:35;6.03;;;1.80;;
15385;SDS011;7791;47.246;9.648;2022-07-11T01:18:02;5.97;;;1.73;;
15385;SDS011;7791;47.246;9.648;2022-07-11T01:20:29;3.80;;;1.70;;
15385;SDS011;7791;47.246;9.648;2022-07-11T01:23:00;5.03;;;1.80;;
15385;SDS011;7791;47.246;9.648;2022-07-11T01:25:27;3.00;;;1.77;;
15385;SDS011;7791;47.246;9.648;2022-07-11T01:27:56;3.40;;;1.77;;
15385;SDS011;7791;47.246;9.648;2022-07-11T01:30:22;4.90;;;1.70;;
15385;SDS011;7791;47.246;9.648;2022-07-11T01:32:50;3.47;;;1.80;;
15385;SDS011;7791;47.246;9.648;2022-07-11T01:35:22;3.07;;;1.90;;
15385;SDS011;7791;47.246;9.648;2022-07-11T01:37:54;2.87;;;1.87;;
15385;SDS011;7791;47.246;9.648;2022-07-11T01:40:31;2.80;;;1.50;;
15385;SDS011;7791;47.246;9.648;2022-07-11T01:42:57;4.50;;;1.80;;
15385;SDS011;7791;47.246;9.648;2022-07-11T01:45:25;3.77;;;1.90;;
15385;SDS011;7791;47.246;9.648;2022-07-11T01:47:55;3.30;;;1.70;;
15385;SDS011;7791;47.246;9.648;2022-07-11T01:50:21;2.83;;;1.83;;
15385;SDS011;7791;47.246;9.648;2022-07-11T01:52:48;3.50;;;2.07;;
15385;SDS011;7791;47.246;9.648;2022-07-11T01:55:15;3.00;;;2.20;;
15385;SDS011;7791;47.246;9.648;2022-07-11T01:57:43;4.87;;;2.07;;
15385;SDS011;7791;47.246;9.648;2022-07-11T02:00:12;2.90;;;2.23;;
15385;SDS011;7791;47.246;9.648;2022-07-11T02:02:38;4.40;;;1.90;;
15385;SDS011;7791;47.246;9.648;2022-07-11T02:05:04;4.13;;;2.33;;
15385;SDS011;7791;47.246;9.648;2022-07-11T02:07:32;2.80;;;2.07;;
15385;SDS011;7791;47.246;9.648;2022-07-11T02:09:58;5.50;;;2.33;;
15385;SDS011;7791;47.246;9.648;2022-07-11T02:12:23;5.63;;;2.60;;
15385;SDS011;7791;47.246;9.648;2022-07-11T02:14:53;5.10;;;2.50;;
15385;SDS011;7791;47.246;9.648;2022-07-11T02:17:19;3.53;;;2.80;;
15385;SDS011;7791;47.246;9.648;2022-07-11T02:19:44;3.87;;;2.17;;
15385;SDS011;7791;47.246;9.648;2022-07-11T02:22:10;3.30;;;2.07;;
15385;SDS011;7791;47.246;9.648;2022-07-11T02:24:36;5.60;;;2.53;;
15385;SDS011;7791;47.246;9.648;2022-07-11T02:27:02;4.13;;;2.17;;
15385;SDS011;7791;47.246;9.648;2022-07-11T02:29:29;4.07;;;1.90;;
15385;SDS011;7791;47.246;9.648;2022-07-11T02:31:57;3.50;;;2.20;;
15385;SDS011;7791;47.246;9.648;2022-07-11T02:34:24;4.27;;;2.50;;
15385;SDS011;7791;47.246;9.648;2022-07-11T02:36:50;4.00;;;2.33;;
15385;SDS011;7791;47.246;9.648;2022-07-11T02:39:16;3.87;;;2.77;;
15385;SDS011;7791;47.246;9.648;2022-07-11T02:41:44;4.50;;;2.47;;
15385;SDS011;7791;47.246;9.648;2022-07-11T02:44:09;4.23;;;2.50;;
15385;SDS011;7791;47.246;9.648;2022-07-11T02:46:35;7.30;;;3.20;;
15385;SDS011;7791;47.246;9.648;2022-07-11T02:49:03;15.73;;;3.30;;
15385;SDS011;7791;47.246;9.648;2022-07-11T02:51:28;3.13;;;2.57;;
15385;SDS011;7791;47.246;9.648;2022-07-11T02:53:54;5.40;;;2.63;;
15385;SDS011;7791;47.246;9.648;2022-07-11T02:56:20;3.27;;;2.70;;
15385;SDS011;7791;47.246;9.648;2022-07-11T02:58:48;5.10;;;2.33;;
15385;SDS011;7791;47.246;9.648;2022-07-11T03:01:16;4.17;;;2.47;;
15385;SDS011;7791;47.246;9.648;2022-07-11T03:03:44;5.70;;;2.50;;
15385;SDS011;7791;47.246;9.648;2022-07-11T03:06:11;6.40;;;2.70;;
15385;SDS011;7791;47.246;9.648;2022-07-11T03:08:37;4.67;;;2.83;;
15385;SDS011;7791;47.246;9.648;2022-07-11T03:11:03;3.87;;;2.60;;
15385;SDS011;7791;47.246;9.648;2022-07-11T03:13:29;6.87;;;2.47;;
15385;SDS011;7791;47.246;9.648;2022-07-11T03:15:55;5.63;;;3.23;;
15385;SDS011;7791;47.246;9.648;2022-07-11T03:18:21;7.40;;;3.03;;
15385;SDS011;7791;47.246;9.648;2022-07-11T03:20:47;10.00;;;2.60;;
15385;SDS011;7791;47.246;9.648;2022-07-11T03:23:18;5.30;;;2.20;;
15385;SDS011;7791;47.246;9.648;2022-07-11T03:25:46;14.63;;;3.10;;
15385;SDS011;7791;47.246;9.648;2022-07-11T03:28:12;5.07;;;2.73;;
15385;SDS011;7791;47.246;9.648;2022-07-11T03:30:38;9.13;;;2.90;;
15385;SDS011;7791;47.246;9.648;2022-07-11T03:33:04;4.50;;;2.67;;
15385;SDS011;7791;47.246;9.648;2022-07-11T03:35:31;7.13;;;2.90;;
15385;SDS011;7791;47.246;9.648;2022-07-11T03:37:57;6.77;;;2.70;;
15385;SDS011;7791;47.246;9.648;2022-07-11T03:40:25;4.27;;;2.90;;
15385;SDS011;7791;47.246;9.648;2022-07-11T03:42:51;4.33;;;2.80;;
15385;SDS011;7791;47.246;9.648;2022-07-11T03:45:25;4.67;;;2.80;;
15385;SDS011;7791;47.246;9.648;2022-07-11T03:47:51;7.90;;;3.67;;
15385;SDS011;7791;47.246;9.648;2022-07-11T03:50:19;7.63;;;3.47;;
15385;SDS011;7791;47.246;9.648;2022-07-11T03:52:53;7.87;;;3.40;;
15385;SDS011;7791;47.246;9.648;2022-07-11T03:55:19;7.97;;;3.30;;
15385;SDS011;7791;47.246;9.648;2022-07-11T03:57:47;5.63;;;2.90;;
15385;SDS011;7791;47.246;9.648;2022-07-11T04:00:15;7.17;;;3.10;;
15385;SDS011;7791;47.246;9.648;2022-07-11T04:02:58;6.40;;;3.40;;
15385;SDS011;7791;47.246;9.648;2022-07-11T04:05:25;3.53;;;2.97;;
15385;SDS011;7791;47.246;9.648;2022-07-11T04:07:54;4.90;;;3.20;;
15385;SDS011;7791;47.246;9.648;2022-07-11T04:10:20;4.23;;;3.53;;
15385;SDS011;7791;47.246;9.648;2022-07-11T04:12:48;8.87;;;3.77;;
15385;SDS011;7791;47.246;9.648;2022-07-11T04:15:21;9.10;;;2.90;;
15385;SDS011;7791;47.246;9.648;2022-07-11T04:17:48;3.60;;;2.73;;
15385;SDS011;7791;47.246;9.648;2022-07-11T04:20:16;10.27;;;3.70;;
15385;SDS011;7791;47.246;9.648;2022-07-11T04:22:44;7.53;;;3.00;;
15385;SDS011;7791;47.246;9.648;2022-07-11T04:25:11;8.00;;;3.10;;
15385;SDS011;7791;47.246;9.648;2022-07-11T04:27:38;6.63;;;3.07;;
15385;SDS011;7791;47.246;9.648;2022-07-11T04:32:51;4.47;;;2.90;;
15385;SDS011;7791;47.246;9.648;2022-07-11T04:35:19;7.80;;;3.40;;
15385;SDS011;7791;47.246;9.648;2022-07-11T04:37:48;7.30;;;3.50;;
15385;SDS011;7791;47.246;9.648;2022-07-11T04:40:18;8.10;;;3.70;;
15385;SDS011;7791;47.246;9.648;2022-07-11T04:42:46;6.50;;;3.10;;
15385;SDS011;7791;47.246;9.648;2022-07-11T04:45:13;4.53;;;3.10;;
15385;SDS011;7791;47.246;9.648;2022-07-11T04:47:49;7.80;;;3.23;;
15385;SDS011;7791;47.246;9.648;2022-07-11T04:50:18;7.20;;;3.10;;
15385;SDS011;7791;47.246;9.648;2022-07-11T04:52:44;7.73;;;4.70;;
15385;SDS011;7791;47.246;9.648;2022-07-11T04:55:14;8.47;;;4.87;;
15385;SDS011;7791;47.246;9.648;2022-07-11T04:57:42;6.03;;;4.10;;
15385;SDS011;7791;47.246;9.648;2022-07-11T05:00:11;4.07;;;3.50;;
15385;SDS011;7791;47.246;9.648;2022-07-11T05:02:39;6.40;;;3.37;;
15385;SDS011;7791;47.246;9.648;2022-07-11T05:05:28;5.90;;;3.47;;
15385;SDS011;7791;47.246;9.648;2022-07-11T05:07:54;7.53;;;3.43;;
15385;SDS011;7791;47.246;9.648;2022-07-11T05:10:24;7.47;;;3.77;;
15385;SDS011;7791;47.246;9.648;2022-07-11T05:12:50;8.60;;;3.90;;
15385;SDS011;7791;47.246;9.648;2022-07-11T05:15:17;6.67;;;3.17;;
15385;SDS011;7791;47.246;9.648;2022-07-11T05:18:09;3.53;;;2.40;;
15385;SDS011;7791;47.246;9.648;2022-07-11T05:20:41;6.70;;;2.37;;
15385;SDS011;7791;47.246;9.648;2022-07-11T05:23:22;6.87;;;2.23;;
15385;SDS011;7791;47.246;9.648;2022-07-11T05:25:59;6.33;;;2.07;;
15385;SDS011;7791;47.246;9.648;2022-07-11T05:28:30;4.90;;;1.90;;
15385;SDS011;7791;47.246;9.648;2022-07-11T05:31:07;3.53;;;1.63;;
15385;SDS011;7791;47.246;9.648;2022-07-11T05:33:46;4.30;;;1.77;;
15385;SDS011;7791;47.246;9.648;2022-07-11T05:36:21;4.57;;;1.87;;
15385;SDS011;7791;47.246;9.648;2022-07-11T05:38:49;4.57;;;1.93;;
15385;SDS011;7791;47.246;9.648;2022-07-11T05:41:18;7.97;;;2.00;;
15385;SDS011;7791;47.246;9.648;2022-07-11T05:43:46;4.47;;;1.47;;
15385;SDS011;7791;47.246;9.648;2022-07-11T05:46:20;6.20;;;1.60;;
15385;SDS011;7791;47.246;9.648;2022-07-11T05:49:05;6.40;;;1.67;;
15385;SDS011;7791;47.246;9.648;2022-07-11T05:51:45;5.67;;;1.57;;
15385;SDS011;7791;47.246;9.648;2022-07-11T05:54:19;7.65;;;1.85;;
15385;SDS011;7791;47.246;9.648;2022-07-11T05:57:01;4.22;;;1.33;;
15385;SDS011;7791;47.246;9.648;2022-07-11T05:59:56;2.13;;;1.25;;
15385;SDS011;7791;47.246;9.648;2022-07-11T06:02:28;3.90;;;1.17;;
15385;SDS011;7791;47.246;9.648;2022-07-11T06:05:08;1.90;;;1.10;;
15385;SDS011;7791;47.246;9.648;2022-07-11T06:07:37;3.38;;;1.40;;
15385;SDS011;7791;47.246;9.648;2022-07-11T06:10:06;2.40;;;1.27;;
15385;SDS011;7791;47.246;9.648;2022-07-11T06:12:50;3.00;;;1.60;;
15385;SDS011;7791;47.246;9.648;2022-07-11T06:15:21;3.40;;;1.27;;
15385;SDS011;7791;47.246;9.648;2022-07-11T06:17:49;2.22;;;1.35;;
15385;SDS011;7791;47.246;9.648;2022-07-11T06:20:27;4.20;;;1.45;;
15385;SDS011;7791;47.246;9.648;2022-07-11T06:22:59;2.42;;;1.20;;
15385;SDS011;7791;47.246;9.648;2022-07-11T06:25:27;3.22;;;1.65;;
15385;SDS011;7791;47.246;9.648;2022-07-11T06:27:54;4.30;;;1.60;;
15385;SDS011;7791;47.246;9.648;2022-07-11T06:45:10;2.75;;;1.35;;
15385;SDS011;7791;47.246;9.648;2022-07-11T06:47:37;5.03;;;1.80;;
15385;SDS011;7791;47.246;9.648;2022-07-11T06:50:02;4.53;;;1.50;;
15385;SDS011;7791;47.246;9.648;2022-07-11T06:52:29;4.45;;;1.67;;
15385;SDS011;7791;47.246;9.648;2022-07-11T06:54:58;3.33;;;1.80;;
15385;SDS011;7791;47.246;9.648;2022-07-11T06:57:24;2.33;;;1.35;;
15385;SDS011;7791;47.246;9.648;2022-07-11T06:59:49;5.07;;;1.50;;
15385;SDS011;7791;47.246;9.648;2022-07-11T07:02:16;4.22;;;1.52;;
15385;SDS011;7791;47.246;9.648;2022-07-11T07:04:42;2.45;;;1.40;;
15385;SDS011;7791;47.246;9.648;2022-07-11T07:07:08;3.55;;;1.60;;
15385;SDS011;7791;47.246;9.648;2022-07-11T07:09:34;7.55;;;1.90;;
15385;SDS011;7791;47.246;9.648;2022-07-11T07:12:00;3.17;;;1.20;;
15385;SDS011;7791;47.246;9.648;2022-07-11T07:14:27;4.47;;;1.38;;
15385;SDS011;7791;47.246;9.648;2022-07-11T07:16:53;3.92;;;1.25;;
15385;SDS011;7791;47.246;9.648;2022-07-11T07:19:20;3.95;;;1.90;;
15385;SDS011;7791;47.246;9.648;2022-07-11T07:21:46;3.10;;;1.50;;
15385;SDS011;7791;47.246;9.648;2022-07-11T07:24:11;3.15;;;1.60;;
15385;SDS011;7791;47.246;9.648;2022-07-11T07:26:37;2.85;;;1.35;;
15385;SDS011;7791;47.246;9.648;2022-07-11T07:29:03;5.93;;;1.35;;
15385;SDS011;7791;47.246;9.648;2022-07-11T07:31:29;5.45;;;1.20;;
15385;SDS011;7791;47.246;9.648;2022-07-11T07:33:55;3.97;;;1.38;;
15385;SDS011;7791;47.246;9.648;2022-07-11T07:36:41;6.43;;;1.60;;
15385;SDS011;7791;47.246;9.648;2022-07-11T07:39:08;5.10;;;1.40;;
15385;SDS011;7791;47.246;9.648;2022-07-11T07:41:37;4.90;;;1.55;;
15385;SDS011;7791;47.246;9.648;2022-07-11T07:44:03;3.40;;;1.55;;
15385;SDS011;7791;47.246;9.648;2022-07-11T07:46:29;2.38;;;1.48;;
15385;SDS011;7791;47.246;9.648;2022-07-11T07:48:55;3.08;;;1.50;;
15385;SDS011;7791;47.246;9.648;2022-07-11T07:51:26;6.43;;;1.67;;
15385;SDS011;7791;47.246;9.648;2022-07-11T07:53:54;5.35;;;1.30;;
15385;SDS011;7791;47.246;9.648;2022-07-11T07:56:20;5.75;;;1.45;;
15385;SDS011;7791;47.246;9.648;2022-07-11T07:58:46;3.15;;;1.45;;
15385;SDS011;7791;47.246;9.648;2022-07-11T08:01:14;3.05;;;1.50;;
15385;SDS011;7791;47.246;9.648;2022-07-11T08:03:41;5.13;;;1.70;;
15385;SDS011;7791;47.246;9.648;2022-07-11T08:06:16;4.47;;;2.00;;
15385;SDS011;7791;47.246;9.648;2022-07-11T08:08:43;3.55;;;1.60;;
15385;SDS011;7791;47.246;9.648;2022-07-11T08:11:12;5.35;;;1.70;;
15385;SDS011;7791;47.246;9.648;2022-07-11T08:13:38;3.50;;;1.60;;
15385;SDS011;7791;47.246;9.648;2022-07-11T08:16:07;5.47;;;1.52;;
15385;SDS011;7791;47.246;9.648;2022-07-11T08:18:33;2.63;;;1.52;;
15385;SDS011;7791;47.246;9.648;2022-07-11T08:21:02;5.90;;;1.80;;
15385;SDS011;7791;47.246;9.648;2022-07-11T08:23:28;3.70;;;1.65;;
15385;SDS011;7791;47.246;9.648;2022-07-11T08:25:55;5.47;;;1.90;;
15385;SDS011;7791;47.246;9.648;2022-07-11T08:28:22;5.47;;;1.73;;
15385;SDS011;7791;47.246;9.648;2022-07-11T08:30:48;3.72;;;1.65;;
15385;SDS011;7791;47.246;9.648;2022-07-11T08:33:14;3.95;;;1.60;;
15385;SDS011;7791;47.246;9.648;2022-07-11T08:35:40;4.20;;;1.60;;
15385;SDS011;7791;47.246;9.648;2022-07-11T08:38:06;5.95;;;1.70;;
15385;SDS011;7791;47.246;9.648;2022-07-11T08:40:32;4.88;;;1.70;;
15385;SDS011;7791;47.246;9.648;2022-07-11T08:42:59;4.35;;;1.80;;
15385;SDS011;7791;47.246;9.648;2022-07-11T08:45:29;4.15;;;1.50;;
15385;SDS011;7791;47.246;9.648;2022-07-11T08:47:56;6.85;;;1.77;;
15385;SDS011;7791;47.246;9.648;2022-07-11T08:50:23;5.88;;;1.60;;
15385;SDS011;7791;47.246;9.648;2022-07-11T08:53:00;2.05;;;1.58;;
15385;SDS011;7791;47.246;9.648;2022-07-11T08:55:29;3.13;;;1.45;;
15385;SDS011;7791;47.246;9.648;2022-07-11T08:57:55;4.20;;;1.55;;
15385;SDS011;7791;47.246;9.648;2022-07-11T09:00:22;5.85;;;1.50;;
15385;SDS011;7791;47.246;9.648;2022-07-11T09:02:49;3.60;;;1.55;;
15385;SDS011;7791;47.246;9.648;2022-07-11T09:05:17;3.78;;;1.60;;
15385;SDS011;7791;47.246;9.648;2022-07-11T09:07:44;2.30;;;1.38;;
15385;SDS011;7791;47.246;9.648;2022-07-11T09:10:11;3.97;;;1.50;;
15385;SDS011;7791;47.246;9.648;2022-07-11T09:12:38;3.92;;;1.60;;
15385;SDS011;7791;47.246;9.648;2022-07-11T09:15:30;3.33;;;2.10;;
15385;SDS011;7791;47.246;9.648;2022-07-11T09:17:58;3.00;;;1.55;;
15385;SDS011;7791;47.246;9.648;2022-07-11T09:20:24;3.13;;;1.63;;
15385;SDS011;7791;47.246;9.648;2022-07-11T09:22:49;4.68;;;1.85;;
15385;SDS011;7791;47.246;9.648;2022-07-11T09:25:15;9.48;;;1.77;;
15385;SDS011;7791;47.246;9.648;2022-07-11T09:27:45;3.90;;;1.45;;
15385;SDS011;7791;47.246;9.648;2022-07-11T09:30:15;19.30;;;2.00;;
15385;SDS011;7791;47.246;9.648;2022-07-11T09:32:45;9.80;;;1.73;;
15385;SDS011;7791;47.246;9.648;2022-07-11T09:35:22;5.25;;;1.80;;
15385;SDS011;7791;47.246;9.648;2022-07-11T09:37:53;3.38;;;1.63;;
15385;SDS011;7791;47.246;9.648;2022-07-11T09:40:19;5.18;;;2.00;;
15385;SDS011;7791;47.246;9.648;2022-07-11T09:42:46;4.07;;;1.88;;
15385;SDS011;7791;47.246;9.648;2022-07-11T09:45:12;3.40;;;1.52;;
15385;SDS011;7791;47.246;9.648;2022-07-11T09:47:42;4.72;;;1.60;;
15385;SDS011;7791;47.246;9.648;2022-07-11T09:50:10;3.15;;;1.45;;
15385;SDS011;7791;47.246;9.648;2022-07-11T09:52:37;3.28;;;1.70;;
15385;SDS011;7791;47.246;9.648;2022-07-11T09:55:03;5.18;;;1.50;;
15385;SDS011;7791;47.246;9.648;2022-07-11T09:57:31;5.78;;;1.77;;
15385;SDS011;7791;47.246;9.648;2022-07-11T09:59:59;4.47;;;1.63;;
15385;SDS011;7791;47.246;9.648;2022-07-11T10:02:26;2.78;;;1.70;;
15385;SDS011;7791;47.246;9.648;2022-07-11T10:04:52;4.32;;;1.77;;
15385;SDS011;7791;47.246;9.648;2022-07-11T10:07:24;2.58;;;1.45;;
15385;SDS011;7791;47.246;9.648;2022-07-11T10:09:53;3.47;;;1.50;;
15385;SDS011;7791;47.246;9.648;2022-07-11T10:12:19;4.60;;;1.70;;
15385;SDS011;7791;47.246;9.648;2022-07-11T10:14:46;5.28;;;1.65;;
15385;SDS011;7791;47.246;9.648;2022-07-11T10:17:15;3.03;;;1.35;;
15385;SDS011;7791;47.246;9.648;2022-07-11T10:19:48;5.63;;;1.70;;
15385;SDS011;7791;47.246;9.648;2022-07-11T10:22:19;4.07;;;1.45;;
15385;SDS011;7791;47.246;9.648;2022-07-11T10:24:51;4.13;;;1.58;;
15385;SDS011;7791;47.246;9.648;2022-07-11T10:27:26;5.38;;;1.30;;
15385;SDS011;7791;47.246;9.648;2022-07-11T10:29:57;3.28;;;1.45;;
15385;SDS011;7791;47.246;9.648;2022-07-11T10:32:24;5.80;;;1.77;;
15385;SDS011;7791;47.246;9.648;2022-07-11T10:35:05;6.07;;;1.85;;
15385;SDS011;7791;47.246;9.648;2022-07-11T10:37:45;2.05;;;1.10;;
15385;SDS011;7791;47.246;9.648;2022-07-11T10:40:12;6.10;;;1.42;;
15385;SDS011;7791;47.246;9.648;2022-07-11T10:42:39;4.93;;;1.30;;
15385;SDS011;7791;47.246;9.648;2022-07-11T10:45:07;3.35;;;1.10;;
15385;SDS011;7791;47.246;9.648;2022-07-11T10:47:34;3.22;;;1.15;;
15385;SDS011;7791;47.246;9.648;2022-07-11T10:50:07;3.42;;;1.35;;
15385;SDS011;7791;47.246;9.648;2022-07-11T10:52:47;1.10;;;0.90;;
15385;SDS011;7791;47.246;9.648;2022-07-11T10:55:19;6.40;;;1.48;;
15385;SDS011;7791;47.246;9.648;2022-07-11T10:57:58;2.72;;;1.33;;
15385;SDS011;7791;47.246;9.648;2022-07-11T11:00:31;2.25;;;1.10;;
15385;SDS011;7791;47.246;9.648;2022-07-11T11:03:01;4.05;;;1.20;;
15385;SDS011;7791;47.246;9.648;2022-07-11T11:05:40;2.10;;;1.20;;
15385;SDS011;7791;47.246;9.648;2022-07-11T11:14:17;3.90;;;1.20;;
15385;SDS011;7791;47.246;9.648;2022-07-11T11:16:47;3.55;;;1.10;;
15385;SDS011;7791;47.246;9.648;2022-07-11T11:22:17;1.80;;;1.05;;
15385;SDS011;7791;47.246;9.648;2022-07-11T11:24:44;4.82;;;1.20;;
15385;SDS011;7791;47.246;9.648;2022-07-11T11:27:16;2.30;;;0.93;;
15385;SDS011;7791;47.246;9.648;2022-07-11T11:29:42;3.63;;;0.95;;
15385;SDS011;7791;47.246;9.648;2022-07-11T11:32:09;3.05;;;1.00;;
15385;SDS011;7791;47.246;9.648;2022-07-11T11:34:35;6.18;;;1.30;;
15385;SDS011;7791;47.246;9.648;2022-07-11T11:37:02;4.68;;;1.15;;
15385;SDS011;7791;47.246;9.648;2022-07-11T11:42:13;3.50;;;1.05;;
15385;SDS011;7791;47.246;9.648;2022-07-11T11:44:51;1.88;;;0.98;;
15385;SDS011;7791;47.246;9.648;2022-07-11T11:47:19;1.63;;;0.98;;
15385;SDS011;7791;47.246;9.648;2022-07-11T11:49:46;2.40;;;1.00;;
15385;SDS011;7791;47.246;9.648;2022-07-11T11:52:13;3.22;;;1.02;;
15385;SDS011;7791;47.246;9.648;2022-07-11T11:54:39;4.05;;;1.20;;
15385;SDS011;7791;47.246;9.648;2022-07-11T11:57:05;2.60;;;1.30;;
15385;SDS011;7791;47.246;9.648;2022-07-11T11:59:33;3.15;;;1.10;;
15385;SDS011;7791;47.246;9.648;2022-07-11T12:01:59;4.57;;;1.20;;
15385;SDS011;7791;47.246;9.648;2022-07-11T12:04:29;2.03;;;1.00;;
15385;SDS011;7791;47.246;9.648;2022-07-11T12:06:56;2.65;;;1.20;;
15385;SDS011;7791;47.246;9.648;2022-07-11T12:09:22;2.30;;;1.25;;
15385;SDS011;7791;47.246;9.648;2022-07-11T12:11:49;2.63;;;1.23;;
15385;SDS011;7791;47.246;9.648;2022-07-11T12:14:15;2.05;;;1.10;;
15385;SDS011;7791;47.246;9.648;2022-07-11T12:16:43;2.47;;;1.40;;
15385;SDS011;7791;47.246;9.648;2022-07-11T12:19:13;3.50;;;1.30;;
15385;SDS011;7791;47.246;9.648;2022-07-11T12:21:40;4.75;;;1.35;;
15385;SDS011;7791;47.246;9.648;2022-07-11T12:24:07;2.70;;;1.15;;
15385;SDS011;7791;47.246;9.648;2022-07-11T12:26:36;2.72;;;1.10;;
15385;SDS011;7791;47.246;9.648;2022-07-11T12:29:04;3.00;;;1.23;;
15385;SDS011;7791;47.246;9.648;2022-07-11T12:31:45;4.45;;;1.30;;
15385;SDS011;7791;47.246;9.648;2022-07-11T12:34:12;1.75;;;1.02;;
15385;SDS011;7791;47.246;9.648;2022-07-11T12:36:39;2.97;;;1.20;;
15385;SDS011;7791;47.246;9.648;2022-07-11T12:39:05;2.50;;;1.10;;
15385;SDS011;7791;47.246;9.648;2022-07-11T12:41:31;6.75;;;1.17;;
15385;SDS011;7791;47.246;9.648;2022-07-11T12:43:57;5.25;;;1.33;;
15385;SDS011;7791;47.246;9.648;2022-07-11T12:46:23;2.75;;;1.10;;
15385;SDS011;7791;47.246;9.648;2022-07-11T12:48:51;5.57;;;1.30;;
15385;SDS011;7791;47.246;9.648;2022-07-11T12:51:25;2.55;;;1.10;;
15385;SDS011;7791;47.246;9.648;2022-07-11T12:53:58;3.40;;;1.30;;
15385;SDS011;7791;47.246;9.648;2022-07-11T12:56:25;3.17;;;1.15;;
15385;SDS011;7791;47.246;9.648;2022-07-11T12:58:51;5.32;;;1.05;;
15385;SDS011;7791;47.246;9.648;2022-07-11T13:01:17;2.80;;;1.33;;
15385;SDS011;7791;47.246;9.648;2022-07-11T13:03:43;3.60;;;1.20;;
15385;SDS011;7791;47.246;9.648;2022-07-11T13:06:10;3.72;;;1.20;;
15385;SDS011;7791;47.246;9.648;2022-07-11T13:08:36;3.88;;;1.35;;
15385;SDS011;7791;47.246;9.648;2022-07-11T13:11:03;2.75;;;1.20;;
15385;SDS011;7791;47.246;9.648;2022-07-11T13:13:29;3.42;;;1.30;;
15385;SDS011;7791;47.246;9.648;2022-07-11T13:15:58;5.35;;;1.45;;
15385;SDS011;7791;47.246;9.648;2022-07-11T13:18:23;4.65;;;1.35;;
15385;SDS011;7791;47.246;9.648;2022-07-11T13:20:50;4.03;;;1.30;;
15385;SDS011;7791;47.246;9.648;2022-07-11T13:23:17;3.38;;;1.20;;
15385;SDS011;7791;47.246;9.648;2022-07-11T13:25:43;2.92;;;1.30;;
15385;SDS011;7791;47.246;9.648;2022-07-11T13:28:09;4.10;;;1.20;;
15385;SDS011;7791;47.246;9.648;2022-07-11T13:30:34;2.47;;;1.15;;
15385;SDS011;7791;47.246;9.648;2022-07-11T13:33:01;5.07;;;1.35;;
15385;SDS011;7791;47.246;9.648;2022-07-11T13:35:27;2.42;;;1.15;;
15385;SDS011;7791;47.246;9.648;2022-07-11T13:37:53;4.03;;;1.60;;
15385;SDS011;7791;47.246;9.648;2022-07-11T13:40:21;2.95;;;1.13;;
15385;SDS011;7791;47.246;9.648;2022-07-11T13:42:50;1.98;;;1.10;;
15385;SDS011;7791;47.246;9.648;2022-07-11T13:45:17;2.70;;;1.05;;
15385;SDS011;7791;47.246;9.648;2022-07-11T13:47:45;3.42;;;0.90;;
15385;SDS011;7791;47.246;9.648;2022-07-11T13:50:11;4.90;;;1.30;;
15385;SDS011;7791;47.246;9.648;2022-07-11T13:52:37;3.55;;;1.33;;
15385;SDS011;7791;47.246;9.648;2022-07-11T13:55:05;3.58;;;1.45;;
15385;SDS011;7791;47.246;9.648;2022-07-11T13:57:33;2.33;;;1.13;;
15385;SDS011;7791;47.246;9.648;2022-07-11T13:59:59;5.25;;;1.20;;
15385;SDS011;7791;47.246;9.648;2022-07-11T14:02:25;2.10;;;0.90;;
15385;SDS011;7791;47.246;9.648;2022-07-11T14:04:51;1.92;;;1.08;;
15385;SDS011;7791;47.246;9.648;2022-07-11T14:07:16;1.83;;;1.00;;
15385;SDS011;7791;47.246;9.648;2022-07-11T14:09:42;2.08;;;0.82;;
15385;SDS011;7791;47.246;9.648;2022-07-11T14:12:10;5.95;;;1.10;;
15385;SDS011;7791;47.246;9.648;2022-07-11T14:14:37;3.28;;;1.00;;
15385;SDS011;7791;47.246;9.648;2022-07-11T14:17:03;5.25;;;1.00;;
15385;SDS011;7791;47.246;9.648;2022-07-11T14:19:29;4.40;;;1.23;;
15385;SDS011;7791;47.246;9.648;2022-07-11T14:21:57;6.32;;;1.20;;
15385;SDS011;7791;47.246;9.648;2022-07-11T14:24:23;3.50;;;0.90;;
15385;SDS011;7791;47.246;9.648;2022-07-11T14:26:51;3.58;;;1.05;;
15385;SDS011;7791;47.246;9.648;2022-07-11T14:29:17;2.25;;;1.27;;
15385;SDS011;7791;47.246;9.648;2022-07-11T14:31:44;4.93;;;0.93;;
15385;SDS011;7791;47.246;9.648;2022-07-11T14:34:10;4.38;;;1.38;;
15385;SDS011;7791;47.246;9.648;2022-07-11T14:36:37;2.90;;;1.00;;
15385;SDS011;7791;47.246;9.648;2022-07-11T14:39:04;2.25;;;0.90;;
15385;SDS011;7791;47.246;9.648;2022-07-11T14:41:30;2.33;;;1.05;;
15385;SDS011;7791;47.246;9.648;2022-07-11T14:43:57;1.70;;;1.00;;
15385;SDS011;7791;47.246;9.648;2022-07-11T14:46:22;5.45;;;0.80;;
15385;SDS011;7791;47.246;9.648;2022-07-11T14:48:50;3.88;;;1.05;;
15385;SDS011;7791;47.246;9.648;2022-07-11T14:51:18;4.63;;;1.13;;
15385;SDS011;7791;47.246;9.648;2022-07-11T14:53:44;1.88;;;0.85;;
15385;SDS011;7791;47.246;9.648;2022-07-11T14:56:10;3.85;;;0.82;;
15385;SDS011;7791;47.246;9.648;2022-07-11T14:58:37;3.80;;;1.00;;
15385;SDS011;7791;47.246;9.648;2022-07-11T15:01:04;4.20;;;0.98;;
15385;SDS011;7791;47.246;9.648;2022-07-11T15:03:30;6.03;;;0.90;;
15385;SDS011;7791;47.246;9.648;2022-07-11T15:06:04;1.95;;;0.80;;
15385;SDS011;7791;47.246;9.648;2022-07-11T15:08:31;4.15;;;0.93;;
15385;SDS011;7791;47.246;9.648;2022-07-11T15:10:58;2.13;;;0.80;;
15385;SDS011;7791;47.246;9.648;2022-07-11T15:22:07;2.53;;;0.82;;
15385;SDS011;7791;47.246;9.648;2022-07-11T15:24:36;3.67;;;0.80;;
15385;SDS011;7791;47.246;9.648;2022-07-11T15:27:05;4.28;;;0.82;;
15385;SDS011;7791;47.246;9.648;2022-07-11T15:35:42;2.58;;;0.70;;
15385;SDS011;7791;47.246;9.648;2022-07-11T15:38:11;1.70;;;0.60;;
15385;SDS011;7791;47.246;9.648;2022-07-11T15:40:37;3.33;;;0.90;;
15385;SDS011;7791;47.246;9.648;2022-07-11T15:43:19;3.03;;;0.70;;
15385;SDS011;7791;47.246;9.648;2022-07-11T15:45:45;4.60;;;0.80;;
15385;SDS011;7791;47.246;9.648;2022-07-11T15:48:11;3.53;;;0.95;;
15385;SDS011;7791;47.246;9.648;2022-07-11T15:50:37;1.50;;;0.65;;
15385;SDS011;7791;47.246;9.648;2022-07-11T15:53:03;2.58;;;0.77;;